New Haven, CT (06512)

4:01 PM EDT on July 26, 2016 (GMT -0400)
Beacon Hill/Lake Saltonstall - Branford | | Change Station
Active Advisory: Special Statement Active Notice: Record Report, Local Storm Report

Elev 20 ft 41.28 °N, 72.86 °W | Updated 18 seconds ago

Scattered Clouds
Scattered Clouds
88.6 °F
Feels Like 95 °F
N
2.0
Wind Variable Wind from NNE
Gusts 4.0 mph

Today
High -- | Low -- °F
--% Chance of Precip.
Yesterday
High -- | Low -- °F
Precip. -- in
Pressure 29.84 in
Visibility 10.0 miles
Clouds Scattered Clouds 6000 ft
Heat Index 95 °F
Dew Point 71 °F
Humidity 57%
Rainfall 0.00 in
Snow Depth Not available.
5:41 AM 8:13 PM
Waning Gibbous, 51% visible
METAR KHVN 261953Z 29008KT 10SM SCT060 32/18 A2984 RMK AO2 SLP104 T03170178 $
Pressure 29.84 in
Visibility 10.0 miles
Clouds Scattered Clouds 6000 ft
Heat Index 95 °F
Dew Point 71 °F
Humidity 57%
Rainfall 0.00 in
Snow Depth Not available.
5:41 AM 8:13 PM
Waning Gibbous, 51% visible
METAR KHVN 261953Z 29008KT 10SM SCT060 32/18 A2984 RMK AO2 SLP104 T03170178 $

10-Day Weather Forecast

Almanac

Astronomy

Jul. 26, 2016 Rise Set
Actual Time
Civil Twilight
Nautical Twilight
Astronomical Twilight
Moon
Length of Visible Light
Length of Day
Tomorrow will be .
, % of the Moon is Illuminated

Today's Extremes

State Highs State Lows

Community

WunderPhotos

Upload Photos

1,927,678 photos uploaded!

WunderBlog® & News

Nearby

Air Quality

  Air Quality AQ Index Pollutant
Not available.

Snow Depth

Station Depth Elevation

Earthquake Activity

City Distance Mag. Time & Date
Minimum magnitude displayed is 2.5.

Coastal Water Temperatures

Place Temperature

Stations

Nearby Weather Stations

Station Location Temp. Windchill Dew Point Humidity Wind Precip. Elev Updated Type
                   

Watches & Warnings

Special Statement
Issued: 7:46 AM EDT Jul. 26, 2016 – National Weather Service

... Elevated threat for brush fire spread this afternoon...

Hot temperatures and westerly wind gusts of 20 to 25 mph are
expected this afternoon. Relative humidity values will drop to the
lower 30s percent range during this time. While the area received
some rainfall yesterday... much of it was less than one quarter of
an inch. Input from fire officials indicates the forecast weather
conditions and recent abnormally dry weather will result in
elevated fire weather concerns for today.



746 am EDT Tue Jul 26 2016

... Elevated threat for brush fire spread this afternoon...

Hot temperatures and westerly wind gusts of 20 to 25 mph are
expected this afternoon. Relative humidity values will drop to the
lower 30s percent range during this time. While the area received
some rainfall yesterday... much of it was less than one quarter of
an inch. Input from fire officials indicates the forecast weather
conditions and recent abnormally dry weather will result in
elevated fire weather concerns for today.